createdAt,value
2023-02-15T00:00:58.503Z,2.7
2023-02-15T00:02:59.671Z,2.7
2023-02-15T00:05:00.800Z,2.7
2023-02-15T00:07:01.959Z,2.7
2023-02-15T00:09:03.081Z,2.7
2023-02-15T00:11:04.229Z,2.7
2023-02-15T00:13:08.641Z,2.8
2023-02-15T00:15:09.783Z,2.8
2023-02-15T00:17:10.904Z,2.7
2023-02-15T00:19:12.059Z,2.7
2023-02-15T00:21:13.187Z,2.7
2023-02-15T00:23:14.351Z,2.6
2023-02-15T00:29:21.018Z,2.3
2023-02-15T00:31:22.315Z,2.3
2023-02-15T00:32:24.325Z,2.2
2023-02-15T00:38:27.754Z,2.1
2023-02-15T00:42:33.307Z,2.1
2023-02-15T00:44:34.438Z,2.1
2023-02-15T00:46:35.542Z,2.2
2023-02-15T00:48:36.661Z,2.2
2023-02-15T00:50:37.897Z,2.2
2023-02-15T00:52:38.934Z,2.2
2023-02-15T00:54:43.333Z,2.1
2023-02-15T00:56:44.445Z,2.1
2023-02-15T01:04:48.965Z,2.1
2023-02-15T01:06:50.086Z,2.1
2023-02-15T01:08:54.511Z,2.1
2023-02-15T01:10:55.653Z,2.1
2023-02-15T01:12:56.750Z,2.1
2023-02-15T01:14:57.872Z,2.1
2023-02-15T01:16:58.991Z,2
2023-02-15T01:19:00.121Z,2
2023-02-15T01:21:01.289Z,2
2023-02-15T01:23:05.627Z,2
2023-02-15T01:25:06.782Z,2.1
2023-02-15T01:27:07.896Z,2.1
2023-02-15T01:29:30.679Z,2
2023-02-15T01:33:32.965Z,2
2023-02-15T01:35:37.330Z,2
2023-02-15T01:37:38.467Z,1.9
2023-02-15T01:39:39.593Z,2
2023-02-15T01:41:40.707Z,2
2023-02-15T01:43:41.830Z,2
2023-02-15T01:47:44.084Z,2
2023-02-15T01:49:48.465Z,2
2023-02-15T01:51:49.612Z,2
2023-02-15T02:10:02.978Z,1.7
2023-02-15T02:12:04.096Z,1.6
2023-02-15T02:14:05.216Z,1.6
2023-02-15T02:16:06.380Z,1.6
2023-02-15T02:18:10.712Z,1.6
2023-02-15T02:20:11.834Z,1.6
2023-02-15T02:22:12.962Z,1.6
2023-02-15T02:23:15.164Z,1.5
2023-02-15T02:25:16.159Z,1.5
2023-02-15T02:27:17.293Z,1.5
2023-02-15T02:29:18.403Z,1.5
2023-02-15T02:31:23.011Z,1.5
2023-02-15T02:33:23.909Z,1.5
2023-02-15T02:35:25.035Z,1.5
2023-02-15T02:37:26.141Z,1.5
2023-02-15T02:39:27.274Z,1.4
2023-02-15T02:43:29.531Z,1.4
2023-02-15T02:47:34.979Z,1.3
2023-02-15T02:49:36.121Z,1.3
2023-02-15T02:51:37.241Z,1.3
2023-02-15T02:53:38.321Z,1.3
2023-02-15T02:59:46.459Z,1.2
2023-02-15T03:01:47.664Z,1.2
2023-02-15T03:03:48.675Z,1.2
2023-02-15T03:07:50.907Z,1.3
2023-02-15T03:09:52.047Z,1.3
2023-02-15T03:11:53.134Z,1.3
2023-02-15T03:13:57.508Z,1.2
2023-02-15T03:15:58.792Z,1.2
2023-02-15T03:17:59.735Z,1.2
2023-02-15T03:19:01.927Z,1.2
2023-02-15T03:21:03.004Z,1.2
2023-02-15T03:23:04.108Z,1.2
2023-02-15T03:25:05.224Z,1.2
2023-02-15T03:27:09.562Z,1.2
2023-02-15T03:29:10.684Z,1.2
2023-02-15T03:31:11.886Z,1.2
2023-02-15T03:33:12.880Z,1.2
2023-02-15T03:35:14.000Z,1.1
2023-02-15T03:37:15.097Z,1.1
2023-02-15T03:39:16.196Z,1.1
2023-02-15T03:41:20.527Z,1.2
2023-02-15T03:43:21.656Z,1.2
2023-02-15T03:45:22.745Z,1.2
2023-02-15T03:49:24.947Z,1.1
2023-02-15T03:51:26.071Z,1.1
2023-02-15T04:01:34.780Z,1
2023-02-15T04:07:38.058Z,0.9
2023-02-15T04:09:42.449Z,0.8
2023-02-15T04:11:43.537Z,0.8
2023-02-15T04:13:44.641Z,0.8
2023-02-15T04:16:47.974Z,0.8
2023-02-15T04:18:49.008Z,0.7
2023-02-15T04:20:50.100Z,0.7
2023-02-15T04:22:54.462Z,0.7
2023-02-15T04:24:55.702Z,0.7
2023-02-15T04:26:56.694Z,0.7
2023-02-15T04:28:57.812Z,0.7
2023-02-15T04:30:58.916Z,0.7
2023-02-15T04:32:59.982Z,0.7
2023-02-15T04:35:01.132Z,0.7
2023-02-15T04:37:05.444Z,0.7
2023-02-15T04:39:06.542Z,0.7
2023-02-15T04:41:07.636Z,0.7
2023-02-15T04:43:08.728Z,0.7
2023-02-15T04:45:09.804Z,0.7
2023-02-15T04:47:10.895Z,0.7
2023-02-15T04:49:11.976Z,0.7
2023-02-15T04:51:16.310Z,0.7
2023-02-15T04:53:17.424Z,0.7
2023-02-15T04:57:19.598Z,0.7
2023-02-15T04:59:20.686Z,0.7
2023-02-15T05:01:21.984Z,0.7
2023-02-15T05:03:23.039Z,0.7
2023-02-15T05:05:27.416Z,0.7
2023-02-15T05:07:28.501Z,0.7
2023-02-15T05:09:29.603Z,0.7
2023-02-15T05:11:52.349Z,0.7
2023-02-15T05:13:53.474Z,0.6
2023-02-15T05:15:54.557Z,0.6
2023-02-15T05:17:58.911Z,0.6
2023-02-15T05:19:59.973Z,0.6
2023-02-15T05:22:01.058Z,0.6
2023-02-15T05:24:02.184Z,0.6
2023-02-15T05:26:03.510Z,0.5
2023-02-15T05:28:05.296Z,0.5
2023-02-15T05:30:05.605Z,0.5
2023-02-15T05:32:09.888Z,0.5
2023-02-15T05:34:10.876Z,0.5
2023-02-15T05:36:11.958Z,0.4
2023-02-15T05:38:13.064Z,0.5
2023-02-15T05:40:14.153Z,0.5
2023-02-15T05:42:15.259Z,0.4
2023-02-15T05:44:16.323Z,0.5
2023-02-15T05:52:23.965Z,0.5
2023-02-15T05:54:25.050Z,0.4
2023-02-15T05:56:26.101Z,0.4
2023-02-15T05:58:27.199Z,0.4
2023-02-15T06:00:31.532Z,0.4
2023-02-15T06:02:32.673Z,0.4
2023-02-15T06:05:35.861Z,0.4
2023-02-15T06:07:36.934Z,0.4
2023-02-15T06:09:38.021Z,0.4
2023-02-15T06:11:39.125Z,0.4
2023-02-15T06:13:43.440Z,0.5
2023-02-15T06:15:44.590Z,0.5
2023-02-15T06:17:45.587Z,0.4
2023-02-15T06:19:46.683Z,0.4
2023-02-15T06:23:48.839Z,0.4
2023-02-15T06:25:49.925Z,0.4
2023-02-15T06:27:54.263Z,0.4
2023-02-15T06:29:55.380Z,0.4
2023-02-15T06:31:56.586Z,0.4
2023-02-15T06:33:57.511Z,0.4
2023-02-15T06:35:58.611Z,0.5
2023-02-15T06:37:59.713Z,0.5
2023-02-15T06:42:05.125Z,0.4
2023-02-15T06:44:06.230Z,0.4
2023-02-15T06:46:07.354Z,0.3
2023-02-15T06:50:09.478Z,0.3
2023-02-15T06:52:12.290Z,0.3
2023-02-15T06:54:11.637Z,0.3
2023-02-15T06:56:15.964Z,0.3
2023-02-15T06:58:17.202Z,0.3
2023-02-15T07:00:18.118Z,0.3
2023-02-15T07:09:27.896Z,0.4
2023-02-15T07:11:28.986Z,0.4
2023-02-15T07:17:35.767Z,0.5
2023-02-15T07:19:33.343Z,0.5
2023-02-15T07:21:34.430Z,0.6
2023-02-15T07:23:38.897Z,0.7
2023-02-15T07:25:39.849Z,0.7
2023-02-15T07:27:40.968Z,0.7
2023-02-15T07:33:44.257Z,0.8
2023-02-15T07:35:45.270Z,0.8
2023-02-15T07:39:50.706Z,0.9
2023-02-15T07:41:51.828Z,1
2023-02-15T07:43:52.921Z,1.1
2023-02-15T07:45:53.978Z,1.2
2023-02-15T07:52:00.549Z,1.2
2023-02-15T07:54:01.655Z,1.3
2023-02-15T07:56:03.077Z,1.3
2023-02-15T08:07:13.649Z,2
2023-02-15T08:09:14.758Z,2
2023-02-15T08:11:15.884Z,1.9
2023-02-15T08:17:19.235Z,1.8
2023-02-15T08:25:27.058Z,2.6
2023-02-15T08:27:28.114Z,2.7
2023-02-15T08:29:29.252Z,2.6
2023-02-15T08:31:30.487Z,2.6
2023-02-15T08:33:34.756Z,2.7
2023-02-15T08:35:35.905Z,2.7
2023-02-15T08:37:36.997Z,2.8
2023-02-15T08:39:38.131Z,2.9
2023-02-15T08:41:39.307Z,3
2023-02-15T08:43:40.413Z,3.2
2023-02-15T08:45:41.615Z,3.3
2023-02-15T08:47:47.501Z,3.4
2023-02-15T08:49:48.567Z,3.5
2023-02-15T08:51:49.694Z,3.7
2023-02-15T08:54:18.088Z,3.9
2023-02-15T08:56:19.245Z,3.9
2023-02-15T08:58:20.348Z,4.1
2023-02-15T09:00:24.765Z,4.2
2023-02-15T09:02:26.003Z,4.3
2023-02-15T09:04:27.073Z,4.4
2023-02-15T09:06:28.215Z,4.5
2023-02-15T09:08:29.379Z,4.6
2023-02-15T09:10:30.546Z,4.8
2023-02-15T09:12:31.700Z,4.8
2023-02-15T09:14:36.098Z,5.1
2023-02-15T09:20:39.627Z,5.3
2023-02-15T09:22:40.795Z,5.4
2023-02-15T09:24:41.970Z,5.6
2023-02-15T09:26:43.145Z,5.7
2023-02-15T09:28:47.577Z,5.7
2023-02-15T09:30:48.913Z,5.7
2023-02-15T09:32:49.958Z,6
2023-02-15T09:34:51.124Z,6
2023-02-15T09:36:52.373Z,6.1
2023-02-15T09:42:59.123Z,8.8
2023-02-15T09:45:00.319Z,8.7
2023-02-15T09:47:01.491Z,8.2
2023-02-15T09:50:04.959Z,8.1
2023-02-15T09:58:12.973Z,9.2
2023-02-15T10:00:14.168Z,9.8
2023-02-15T10:02:15.494Z,10
2023-02-15T10:04:16.638Z,10.5
2023-02-15T10:06:17.772Z,10.8
2023-02-15T10:08:18.977Z,11.1
2023-02-15T10:10:23.446Z,11.2
2023-02-15T10:12:24.653Z,11.2
2023-02-15T10:14:25.844Z,10.4
2023-02-15T10:16:27.158Z,10.1
2023-02-15T10:20:29.497Z,10.8
2023-02-15T10:22:30.714Z,10.5
2023-02-15T10:24:40.577Z,10.9
2023-02-15T10:30:39.025Z,10.7
2023-02-15T10:32:40.052Z,10.7
2023-02-15T10:34:41.291Z,11.1
2023-02-15T10:42:49.428Z,12.2
2023-02-15T10:43:51.657Z,12.1
2023-02-15T10:45:52.974Z,12.5
2023-02-15T10:47:54.121Z,13.7
2023-02-15T10:49:55.338Z,13.4
2023-02-15T10:52:00.103Z,14.6
2023-02-15T10:54:01.303Z,15
2023-02-15T10:56:02.518Z,15.8
2023-02-15T10:58:03.767Z,16
2023-02-15T11:00:05.006Z,16.5
2023-02-15T11:02:06.236Z,16.4
2023-02-15T11:04:07.462Z,17.1
2023-02-15T11:06:11.959Z,16.1
2023-02-15T11:08:13.213Z,15.9
2023-02-15T11:10:16.039Z,15.4
2023-02-15T11:12:15.687Z,15
2023-02-15T11:14:16.945Z,15
2023-02-15T11:16:18.934Z,15.1
2023-02-15T11:18:19.393Z,15
2023-02-15T11:20:23.689Z,15.1
2023-02-15T11:22:24.952Z,15.1
2023-02-15T11:24:26.149Z,15.4
2023-02-15T11:32:30.707Z,16
2023-02-15T11:34:34.999Z,16.1
2023-02-15T11:36:36.161Z,16.1
2023-02-15T11:38:37.222Z,15.9
2023-02-15T11:39:39.408Z,14
2023-02-15T11:41:40.540Z,13.3
2023-02-15T11:43:41.662Z,12.6
2023-02-15T11:45:42.899Z,12.4
2023-02-15T11:47:47.207Z,12.1
2023-02-15T11:49:48.318Z,12.2
2023-02-15T11:51:49.435Z,12.4
2023-02-15T11:53:50.611Z,12.3
2023-02-15T11:55:51.855Z,12.3
2023-02-15T11:57:53.081Z,12.3
2023-02-15T11:59:54.173Z,12.3
2023-02-15T12:01:58.467Z,12.4
2023-02-15T12:03:59.680Z,12.4
2023-02-15T12:06:00.729Z,12.3
2023-02-15T12:08:01.834Z,12.3
2023-02-15T12:10:02.984Z,12.4
2023-02-15T12:12:04.116Z,12.5
2023-02-15T12:14:05.244Z,12.6
2023-02-15T12:16:11.491Z,12.8
2023-02-15T12:18:10.788Z,12.7
2023-02-15T12:20:12.004Z,12.6
2023-02-15T12:22:14.197Z,12.5
2023-02-15T12:24:14.293Z,12.5
2023-02-15T12:26:15.518Z,12.6
2023-02-15T12:28:16.638Z,12.7
2023-02-15T12:30:21.012Z,12.7
2023-02-15T12:32:22.300Z,12.7
2023-02-15T12:36:51.500Z,12.7
2023-02-15T12:38:52.712Z,12.6
2023-02-15T12:40:53.780Z,12.6
2023-02-15T12:44:59.246Z,12.9
2023-02-15T12:51:02.621Z,12.9
2023-02-15T12:55:04.906Z,13
2023-02-15T12:59:10.312Z,13.1
2023-02-15T13:01:11.481Z,13.1
2023-02-15T13:03:12.557Z,13
2023-02-15T13:05:13.697Z,13
2023-02-15T13:07:14.821Z,13.3
2023-02-15T13:09:15.959Z,13.3
2023-02-15T13:11:20.354Z,13.3
2023-02-15T13:13:21.484Z,13.3
2023-02-15T13:15:22.618Z,13.3
2023-02-15T13:17:23.722Z,13.3
2023-02-15T13:19:24.878Z,13.3
2023-02-15T13:21:26.024Z,13.3
2023-02-15T13:25:31.452Z,13.1
2023-02-15T13:27:32.573Z,13.1
2023-02-15T13:29:36.053Z,13.1
2023-02-15T13:30:35.853Z,13.1
2023-02-15T13:32:37.005Z,13.1
2023-02-15T13:34:38.121Z,13.1
2023-02-15T13:36:39.234Z,13.1
2023-02-15T13:38:43.569Z,13
2023-02-15T13:40:44.691Z,12.9
2023-02-15T13:42:45.823Z,12.9
2023-02-15T13:48:51.346Z,12.9
2023-02-15T13:50:50.340Z,12.9
2023-02-15T13:54:55.764Z,12.9
2023-02-15T13:56:57.009Z,12.9
2023-02-15T13:58:58.136Z,12.8
2023-02-15T14:00:59.412Z,12.8
2023-02-15T14:03:00.415Z,12.9
2023-02-15T14:05:01.561Z,12.9
2023-02-15T14:07:05.831Z,12.9
2023-02-15T14:09:06.982Z,12.9
2023-02-15T14:11:08.101Z,12.9
2023-02-15T14:13:10.123Z,12.8
2023-02-15T14:15:10.364Z,12.8
2023-02-15T14:17:11.616Z,12.8
2023-02-15T14:19:12.630Z,12.8
2023-02-15T14:21:16.914Z,12.8
2023-02-15T14:23:18.164Z,12.9
2023-02-15T14:25:19.428Z,12.8
2023-02-15T14:26:21.533Z,12.7
2023-02-15T14:32:25.007Z,12.6
2023-02-15T14:34:29.246Z,12.4
2023-02-15T14:36:32.319Z,12.4
2023-02-15T14:40:34.143Z,12.3
2023-02-15T14:46:37.558Z,12.3
2023-02-15T14:50:44.785Z,12.2
2023-02-15T14:52:44.151Z,12.2
2023-02-15T14:54:45.383Z,12.2
2023-02-15T14:58:48.075Z,12.2
2023-02-15T15:00:49.193Z,12.2
2023-02-15T15:10:59.197Z,12.1
2023-02-15T15:13:00.434Z,12.1
2023-02-15T15:15:01.573Z,12
2023-02-15T15:17:06.113Z,12
2023-02-15T15:21:08.561Z,11.9
2023-02-15T15:24:12.059Z,11.8
2023-02-15T15:26:13.294Z,11.7
2023-02-15T15:30:18.990Z,11.6
2023-02-15T15:32:20.276Z,11.6
2023-02-15T15:36:22.688Z,11.6
2023-02-15T15:38:23.926Z,11.5
2023-02-15T15:42:26.416Z,11.4
2023-02-15T15:44:30.936Z,11.3
2023-02-15T15:46:32.124Z,11.3
2023-02-15T15:48:33.302Z,11.3
2023-02-15T15:50:34.576Z,11.3
2023-02-15T15:52:35.800Z,11.2
2023-02-15T15:54:37.000Z,11.2
2023-02-15T15:56:38.246Z,11.1
2023-02-15T15:58:42.823Z,11.1
2023-02-15T16:00:44.019Z,11.1
2023-02-15T16:02:45.345Z,11.1
2023-02-15T16:04:46.504Z,11
2023-02-15T16:06:47.719Z,11
2023-02-15T16:08:48.978Z,11
2023-02-15T16:10:50.225Z,11
2023-02-15T16:19:25.484Z,10.7
2023-02-15T16:23:27.952Z,10.7
2023-02-15T16:25:32.467Z,10.7
2023-02-15T16:27:33.663Z,10.7
2023-02-15T16:29:34.913Z,10.6
2023-02-15T16:31:36.246Z,10.5
2023-02-15T16:33:37.408Z,10.5
2023-02-15T16:35:38.651Z,10.4
2023-02-15T16:37:39.891Z,10.4
2023-02-15T16:39:44.407Z,10.4
2023-02-15T16:41:45.616Z,10.4
2023-02-15T16:43:46.837Z,10.3
2023-02-15T16:45:48.095Z,10.3
2023-02-15T16:47:49.663Z,10.2
2023-02-15T16:49:50.623Z,10.1
2023-02-15T16:51:51.795Z,10.1
2023-02-15T16:53:56.289Z,10.1
2023-02-15T16:55:57.527Z,10.1
2023-02-15T16:57:58.768Z,10.1
2023-02-15T16:59:59.962Z,10
2023-02-15T17:02:01.212Z,10
2023-02-15T17:04:02.493Z,9.9
2023-02-15T17:06:03.667Z,9.9
2023-02-15T17:10:09.375Z,9.9
2023-02-15T17:12:10.596Z,9.9
2023-02-15T17:13:12.855Z,9.9
2023-02-15T17:15:14.087Z,9.8
2023-02-15T17:17:15.300Z,9.8
2023-02-15T17:19:16.524Z,9.7
2023-02-15T17:21:21.012Z,9.6
2023-02-15T17:23:22.255Z,9.6
2023-02-15T17:25:23.483Z,9.6
2023-02-15T17:27:24.768Z,9.6
2023-02-15T17:29:25.941Z,9.6
2023-02-15T17:31:27.212Z,9.6
2023-02-15T17:33:28.390Z,9.5
2023-02-15T17:37:34.095Z,9.5
2023-02-15T17:41:36.526Z,9.4
2023-02-15T17:45:39.057Z,9.3
2023-02-15T17:47:40.210Z,9.4
2023-02-15T17:49:44.725Z,9.3
2023-02-15T17:57:49.623Z,9.2
2023-02-15T18:05:57.760Z,9
2023-02-15T18:07:59.025Z,9
2023-02-15T18:09:01.227Z,9
2023-02-15T18:11:02.738Z,9
2023-02-15T18:15:04.920Z,8.9
2023-02-15T18:17:09.394Z,8.9
2023-02-15T18:19:10.619Z,8.9
2023-02-15T18:21:12.251Z,8.8
2023-02-15T18:23:13.084Z,8.7
2023-02-15T18:25:14.294Z,8.6
2023-02-15T18:29:16.764Z,8.6
2023-02-15T18:35:23.669Z,8.8
2023-02-15T18:37:24.910Z,8.7
2023-02-15T18:39:26.123Z,8.6
2023-02-15T18:43:28.566Z,8.6
2023-02-15T18:47:34.268Z,8.6
2023-02-15T18:55:39.135Z,8.5
2023-02-15T18:59:44.841Z,8.6
2023-02-15T19:01:46.159Z,8.6
2023-02-15T19:03:47.310Z,8.6
2023-02-15T19:04:49.533Z,8.6
2023-02-15T19:06:50.779Z,8.6
2023-02-15T19:08:51.977Z,8.6
2023-02-15T19:10:53.206Z,8.6
2023-02-15T19:14:58.918Z,8.6
2023-02-15T19:17:00.111Z,8.6
2023-02-15T19:19:01.345Z,8.5
2023-02-15T19:21:02.546Z,8.5
2023-02-15T19:25:04.997Z,8.4
2023-02-15T19:27:09.484Z,8.4
2023-02-15T19:29:10.694Z,8.4
2023-02-15T19:31:12.102Z,8.5
2023-02-15T19:41:21.285Z,8.2
2023-02-15T19:45:23.708Z,8.1
2023-02-15T19:47:24.926Z,8.1
2023-02-15T19:49:26.161Z,8
2023-02-15T19:51:27.399Z,8
2023-02-15T19:53:28.624Z,7.9
2023-02-15T19:55:33.166Z,7.8
2023-02-15T19:57:34.319Z,7.8
2023-02-15T19:59:35.520Z,7.8
2023-02-15T20:02:03.890Z,7.8
2023-02-15T20:04:05.086Z,7.9
2023-02-15T20:06:06.312Z,7.9
2023-02-15T20:08:10.823Z,7.8
2023-02-15T20:10:11.977Z,7.8
2023-02-15T20:12:13.196Z,7.7
2023-02-15T20:14:14.452Z,7.7
2023-02-15T20:16:15.748Z,7.8
2023-02-15T20:18:16.856Z,8
2023-02-15T20:20:18.090Z,7.9
2023-02-15T20:22:22.567Z,7.8
2023-02-15T20:24:23.792Z,7.7
2023-02-15T20:26:26.561Z,7.7
2023-02-15T20:28:27.729Z,7.6
2023-02-15T20:30:29.013Z,7.6
2023-02-15T20:32:30.347Z,7.7
2023-02-15T20:34:31.370Z,7.7
2023-02-15T20:36:35.843Z,7.9
2023-02-15T20:38:37.075Z,7.9
2023-02-15T20:40:38.274Z,8
2023-02-15T20:42:39.496Z,8
2023-02-15T20:44:40.683Z,8
2023-02-15T20:46:42.040Z,8
2023-02-15T20:48:43.623Z,8
2023-02-15T20:50:48.070Z,8.1
2023-02-15T20:52:49.299Z,8.1
2023-02-15T20:54:50.489Z,8.1
2023-02-15T20:55:52.739Z,8.1
2023-02-15T20:57:53.949Z,8.2
2023-02-15T20:59:55.138Z,8.2
2023-02-15T21:01:56.419Z,8.2
2023-02-15T21:04:00.906Z,8.3
2023-02-15T21:06:02.068Z,8.3
2023-02-15T21:08:03.269Z,8.2
2023-02-15T21:10:04.512Z,8.2
2023-02-15T21:12:05.720Z,8.2
2023-02-15T21:16:08.202Z,8.3
2023-02-15T21:20:13.824Z,8.3
2023-02-15T21:22:15.042Z,8.3
2023-02-15T21:24:16.245Z,8.3
2023-02-15T21:26:19.562Z,8.4
2023-02-15T21:28:18.670Z,8.3
2023-02-15T21:30:19.945Z,8.4
2023-02-15T21:32:24.506Z,8.3
2023-02-15T21:34:25.554Z,8.4
2023-02-15T21:36:26.774Z,8.5
2023-02-15T21:38:27.978Z,8.5
2023-02-15T21:42:30.414Z,8.5
2023-02-15T21:46:36.213Z,8.5
2023-02-15T21:48:37.327Z,8.5
2023-02-15T21:51:40.729Z,8.4
2023-02-15T21:55:43.167Z,8.5
2023-02-15T21:59:48.859Z,8.3
2023-02-15T22:01:50.116Z,8.3
2023-02-15T22:07:53.756Z,8.2
2023-02-15T22:09:54.961Z,8.1
2023-02-15T22:11:56.155Z,8.1
2023-02-15T22:20:04.275Z,7.9
2023-02-15T22:24:06.697Z,7.9
2023-02-15T22:26:07.944Z,7.8
2023-02-15T22:32:14.920Z,7.8
2023-02-15T22:34:16.048Z,7.8
2023-02-15T22:44:25.321Z,7.7
2023-02-15T22:46:26.528Z,7.7
2023-02-15T22:47:28.752Z,7.7
2023-02-15T22:49:29.995Z,7.7
2023-02-15T22:55:36.927Z,7.7
2023-02-15T22:57:38.119Z,7.7
2023-02-15T22:59:39.323Z,7.6
2023-02-15T23:01:40.549Z,7.5
2023-02-15T23:03:41.789Z,7.6
2023-02-15T23:05:42.947Z,7.5
2023-02-15T23:07:44.285Z,7.5
2023-02-15T23:09:48.647Z,7.5
2023-02-15T23:19:54.642Z,7.5
2023-02-15T23:21:55.862Z,7.5
2023-02-15T23:30:04.034Z,7.4
2023-02-15T23:32:05.263Z,7.3
2023-02-15T23:34:06.355Z,7.3
2023-02-15T23:36:07.553Z,7.3
2023-02-15T23:38:12.009Z,7.3
2023-02-15T23:40:13.251Z,7.3
2023-02-15T23:42:14.453Z,7.3
2023-02-15T23:44:42.766Z,7.3
2023-02-15T23:46:43.977Z,7.3
2023-02-15T23:48:45.171Z,7.3
2023-02-15T23:50:49.618Z,7.3
2023-02-15T23:52:50.833Z,7.3
2023-02-15T23:54:52.040Z,7.2
2023-02-15T23:56:53.257Z,7.2
2023-02-15T23:58:54.457Z,7.1
